Time;durP1;ratioP1;P1;durP2;ratioP2;P2;SDS_P1;SDS_P2;PMS_P1;PMS_P2;Temp;Humidity;BMP_temperature;BMP_pressure;BME280_temperature;BME280_humidity;BME280_pressure;Samples;Min_cycle;Max_cycle;Signal;HPM_P1;HPM_P2
2021/07/20 00:00:34;;;;;;;9.77;6.50;;;16.30;71.00;;;;;;4634486;30;20043;-79
2021/07/20 00:02:59;;;;;;;9.48;6.20;;;16.30;71.30;;;;;;4649984;30;20039;-79
2021/07/20 00:05:27;;;;;;;10.73;6.72;;;16.30;71.40;;;;;;4634576;30;20038;-79
2021/07/20 00:08:03;;;;;;;9.30;6.57;;;16.20;71.40;;;;;;4634476;30;20408;-79
2021/07/20 00:10:31;;;;;;;9.43;6.13;;;16.20;71.70;;;;;;4634349;30;20405;-79
2021/07/20 00:12:57;;;;;;;11.00;6.20;;;16.20;71.60;;;;;;4634229;30;20095;-80
2021/07/20 00:15:23;;;;;;;11.23;6.57;;;16.20;71.80;;;;;;4634460;30;20428;-79
2021/07/20 00:17:51;;;;;;;9.02;5.78;;;16.20;71.80;;;;;;4649743;30;20118;-79
2021/07/20 00:20:21;;;;;;;10.23;5.88;;;16.20;71.90;;;;;;4634382;30;20058;-80
2021/07/20 00:22:50;;;;;;;10.27;6.18;;;16.20;72.00;;;;;;4634208;30;20087;-79
2021/07/20 00:25:16;;;;;;;8.93;6.00;;;16.20;72.10;;;;;;4634249;30;20031;-79
2021/07/20 00:27:43;;;;;;;12.02;7.05;;;16.10;72.10;;;;;;4634366;30;20072;-79
2021/07/20 00:30:10;;;;;;;11.60;7.20;;;16.10;72.20;;;;;;4634353;30;20494;-79
2021/07/20 00:32:36;;;;;;;9.90;6.53;;;16.10;72.30;;;;;;4634003;30;20039;-79
2021/07/20 00:35:04;;;;;;;9.57;6.15;;;16.10;72.40;;;;;;4633805;30;20062;-79
2021/07/20 00:37:30;;;;;;;9.98;6.40;;;16.10;72.50;;;;;;4633968;30;20117;-79
2021/07/20 00:39:55;;;;;;;11.90;7.22;;;16.00;72.50;;;;;;4634045;30;20205;-79
2021/07/20 00:42:21;;;;;;;11.27;7.15;;;16.00;72.80;;;;;;4633904;30;20050;-79
2021/07/20 00:44:47;;;;;;;11.90;7.15;;;16.00;73.00;;;;;;4634000;30;20426;-79
2021/07/20 00:47:12;;;;;;;10.65;6.75;;;15.90;73.00;;;;;;4634042;30;20117;-79
2021/07/20 00:49:38;;;;;;;11.48;6.88;;;15.90;73.00;;;;;;4633725;30;20035;-79
2021/07/20 00:52:04;;;;;;;11.60;6.47;;;15.90;73.10;;;;;;4633851;30;20039;-79
2021/07/20 00:54:30;;;;;;;13.40;6.97;;;15.90;73.10;;;;;;4649018;30;20425;-79
2021/07/20 00:56:57;;;;;;;13.30;6.72;;;15.90;73.10;;;;;;4648968;30;20031;-79
2021/07/20 00:59:24;;;;;;;10.60;6.78;;;15.90;73.20;;;;;;4649121;30;20027;-79
2021/07/20 01:01:50;;;;;;;11.05;6.35;;;15.90;73.30;;;;;;4648755;30;20098;-79
2021/07/20 01:04:16;;;;;;;12.13;6.80;;;15.90;73.30;;;;;;4649181;30;20449;-79
2021/07/20 01:06:42;;;;;;;10.60;6.70;;;15.80;73.40;;;;;;4633797;30;20090;-79
2021/07/20 01:09:09;;;;;;;8.90;5.97;;;15.80;73.40;;;;;;4648826;30;20114;-80
2021/07/20 01:11:36;;;;;;;10.60;6.78;;;15.80;73.50;;;;;;4633491;30;20516;-79
2021/07/20 01:14:05;;;;;;;11.80;6.82;;;15.80;74.20;;;;;;4633527;30;20038;-79
2021/07/20 01:16:33;;;;;;;11.43;6.93;;;15.80;73.60;;;;;;4633470;30;20137;-79
2021/07/20 01:19:00;;;;;;;9.80;6.88;;;15.80;73.70;;;;;;4648745;30;20034;-79
2021/07/20 01:21:27;;;;;;;10.88;6.50;;;15.80;73.80;;;;;;4633440;30;20035;-79
2021/07/20 01:23:56;;;;;;;12.68;7.03;;;15.70;73.70;;;;;;4633128;30;20382;-80
2021/07/20 01:26:22;;;;;;;10.23;6.72;;;15.80;73.90;;;;;;4648224;30;20038;-79
2021/07/20 01:28:48;;;;;;;9.98;6.05;;;15.70;73.90;;;;;;4633327;30;20030;-79
2021/07/20 01:31:20;;;;;;;11.50;7.68;;;15.70;74.00;;;;;;4633226;30;20035;-79
2021/07/20 01:33:50;;;;;;;13.52;7.22;;;15.70;74.10;;;;;;4648311;30;20538;-79
2021/07/20 01:36:17;;;;;;;12.60;7.07;;;15.60;74.20;;;;;;4633362;30;20036;-79
2021/07/20 01:38:44;;;;;;;11.43;7.13;;;15.60;74.30;;;;;;4633313;30;20053;-79
2021/07/20 01:41:14;;;;;;;13.20;6.50;;;15.60;74.30;;;;;;4633577;30;20062;-79
2021/07/20 01:43:44;;;;;;;13.35;7.30;;;15.60;74.40;;;;;;4648592;30;20046;-78
2021/07/20 01:46:11;;;;;;;12.85;6.60;;;15.60;74.40;;;;;;4648601;30;20039;-78
2021/07/20 01:48:41;;;;;;;12.40;7.05;;;15.60;74.40;;;;;;4648372;30;20046;-79
2021/07/20 01:51:08;;;;;;;11.65;7.10;;;15.60;74.50;;;;;;4648592;30;20469;-77
2021/07/20 01:53:35;;;;;;;11.77;7.32;;;15.60;74.60;;;;;;4633225;30;20133;-78
2021/07/20 01:56:03;;;;;;;13.63;7.32;;;15.60;74.60;;;;;;4648232;30;20043;-78
2021/07/20 01:58:29;;;;;;;11.80;7.18;;;15.60;74.80;;;;;;4633048;30;20126;-78
2021/07/20 02:00:58;;;;;;;12.98;7.75;;;15.50;74.70;;;;;;4632836;30;20125;-77
2021/07/20 02:08:59;;;;;;;11.82;7.00;;;15.50;74.90;;;;;;4648745;30;20042;-79
2021/07/20 02:11:30;;;;;;;12.30;7.45;;;15.50;74.90;;;;;;4633009;30;20129;-78
2021/07/20 02:14:03;;;;;;;11.48;6.68;;;15.50;74.90;;;;;;4632989;30;20054;-78
2021/07/20 02:16:31;;;;;;;;;;;15.40;74.90;;;;;;4633425;30;20150;-78
2021/07/20 02:19:19;;;;;;;10.73;6.22;;;15.40;74.90;;;;;;4632933;30;19959;-78
2021/07/20 02:21:50;;;;;;;14.65;7.35;;;15.40;75.00;;;;;;4632858;30;20187;-78
2021/07/20 02:24:17;;;;;;;14.20;7.25;;;15.40;75.00;;;;;;4648006;30;20039;-77
2021/07/20 02:26:45;;;;;;;12.13;7.10;;;15.40;75.10;;;;;;4648147;30;20038;-78
2021/07/20 02:29:13;;;;;;;12.40;7.00;;;15.40;75.20;;;;;;4633020;30;20529;-78
2021/07/20 02:31:40;;;;;;;10.38;6.85;;;15.40;75.10;;;;;;4632962;30;20062;-79
2021/07/20 02:34:06;;;;;;;11.60;7.07;;;15.40;75.20;;;;;;4632808;30;20051;-78
2021/07/20 02:36:39;;;;;;;11.38;6.90;;;15.40;75.20;;;;;;4649682;30;20066;-78
2021/07/20 02:39:06;;;;;;;11.80;6.85;;;15.30;75.30;;;;;;4636228;30;20372;-77
2021/07/20 02:41:33;;;;;;;9.70;6.30;;;15.30;75.30;;;;;;4635951;30;20043;-78
2021/07/20 02:43:59;;;;;;;12.63;7.13;;;15.20;75.30;;;;;;4635737;30;20125;-78
2021/07/20 02:46:25;;;;;;;10.30;6.97;;;15.30;75.40;;;;;;4635779;30;20465;-78
2021/07/20 02:48:52;;;;;;;11.75;7.43;;;15.30;76.00;;;;;;4635710;30;20039;-77
2021/07/20 02:51:19;;;;;;;10.07;6.82;;;15.30;75.30;;;;;;4635734;30;20585;-78
2021/07/20 02:53:48;;;;;;;13.43;7.20;;;15.20;75.30;;;;;;4635718;30;20493;-79
2021/07/20 02:56:15;;;;;;;10.52;6.85;;;15.20;75.30;;;;;;4635490;30;20081;-78
2021/07/20 02:58:43;;;;;;;10.75;6.45;;;15.20;75.30;;;;;;4635900;30;20035;-79
2021/07/20 03:01:11;;;;;;;11.02;6.38;;;15.20;75.20;;;;;;4635185;30;20034;-78
2021/07/20 03:03:36;;;;;;;10.40;6.32;;;15.20;75.20;;;;;;4650719;30;20043;-78
2021/07/20 03:06:06;;;;;;;10.68;6.72;;;15.20;75.20;;;;;;4650785;30;20043;-80
2021/07/20 03:08:34;;;;;;;10.95;6.75;;;15.20;75.20;;;;;;4650883;30;20524;-78
2021/07/20 03:11:03;;;;;;;12.20;6.93;;;15.20;75.20;;;;;;4635332;30;20043;-78
2021/07/20 03:13:30;;;;;;;11.50;7.85;;;15.20;75.20;;;;;;4635352;30;20497;-78
2021/07/20 03:15:57;;;;;;;11.95;7.18;;;15.10;75.20;;;;;;4635360;30;20046;-78
2021/07/20 03:18:28;;;;;;;12.43;7.75;;;15.10;75.30;;;;;;4635245;30;20409;-78
2021/07/20 03:20:55;;;;;;;13.85;7.80;;;15.00;75.50;;;;;;4650443;30;20043;-79
2021/07/20 03:23:22;;;;;;;11.52;7.20;;;15.00;75.50;;;;;;4635246;30;20039;-79
2021/07/20 03:25:49;;;;;;;13.32;7.45;;;15.00;75.60;;;;;;4635315;30;20035;-79
2021/07/20 03:28:16;;;;;;;12.07;7.38;;;15.00;75.80;;;;;;4635198;30;20074;-79
2021/07/20 03:30:44;;;;;;;13.40;8.00;;;14.90;75.80;;;;;;4650390;30;20058;-79
2021/07/20 03:33:10;;;;;;;11.50;6.70;;;14.90;75.90;;;;;;4634975;30;20419;-79
2021/07/20 03:35:38;;;;;;;12.27;6.50;;;14.90;75.90;;;;;;4635336;30;20047;-78
2021/07/20 03:38:04;;;;;;;11.15;7.00;;;14.90;76.00;;;;;;4634939;30;20074;-78
2021/07/20 03:40:31;;;;;;;12.45;7.57;;;14.90;76.10;;;;;;4650155;30;20050;-78
2021/07/20 03:42:58;;;;;;;11.07;7.47;;;14.90;76.10;;;;;;4634878;30;20042;-78
2021/07/20 03:45:24;;;;;;;12.82;7.40;;;14.90;76.10;;;;;;4634674;30;20497;-78
2021/07/20 03:47:50;;;;;;;9.77;6.85;;;14.90;76.30;;;;;;4634172;30;20065;-78
2021/07/20 03:50:17;;;;;;;11.07;6.72;;;14.90;76.20;;;;;;4634743;30;20489;-78
2021/07/20 03:52:43;;;;;;;10.50;6.78;;;14.80;76.10;;;;;;4649938;30;20038;-79
2021/07/20 03:55:09;;;;;;;11.68;6.70;;;14.80;76.00;;;;;;4650014;30;20041;-78
2021/07/20 03:57:36;;;;;;;12.13;7.22;;;14.80;76.10;;;;;;4634530;30;20042;-78
2021/07/20 04:00:06;;;;;;;13.30;6.90;;;14.80;76.10;;;;;;4634635;30;20103;-78
2021/07/20 04:02:44;;;;;;;11.70;6.80;;;14.80;76.10;;;;;;4649700;30;20038;-77
2021/07/20 04:05:15;;;;;;;10.88;6.45;;;14.80;76.10;;;;;;4634899;30;20061;-78
2021/07/20 04:07:44;;;;;;;10.43;6.65;;;14.80;76.00;;;;;;4634433;30;20066;-79
2021/07/20 04:10:12;;;;;;;9.70;6.15;;;14.80;76.00;;;;;;4634454;30;20126;-78
2021/07/20 04:12:39;;;;;;;10.20;6.00;;;14.80;76.00;;;;;;4634507;30;20133;-79
2021/07/20 04:15:05;;;;;;;11.77;5.95;;;14.80;76.00;;;;;;4634271;30;20034;-79
2021/07/20 04:17:33;;;;;;;9.80;6.32;;;14.80;76.00;;;;;;4634245;30;20034;-79
2021/07/20 04:20:00;;;;;;;11.05;6.72;;;14.90;76.00;;;;;;4634267;30;20039;-79
2021/07/20 04:22:26;;;;;;;11.10;6.30;;;14.90;75.90;;;;;;4634089;30;20043;-79
2021/07/20 04:24:52;;;;;;;9.13;6.25;;;14.90;75.80;;;;;;4649410;30;20039;-79
2021/07/20 04:27:18;;;;;;;10.27;6.20;;;14.90;75.70;;;;;;4634079;30;20037;-79
2021/07/20 04:29:44;;;;;;;11.52;6.18;;;14.90;75.60;;;;;;4634167;30;20453;-79
2021/07/20 04:32:11;;;;;;;9.82;5.97;;;14.90;75.60;;;;;;4649343;30;20035;-79
2021/07/20 04:34:37;;;;;;;8.70;5.75;;;15.00;75.60;;;;;;4649107;30;20063;-79
2021/07/20 04:37:05;;;;;;;8.52;5.50;;;15.00;75.40;;;;;;4634089;30;20082;-78
2021/07/20 04:39:34;;;;;;;8.20;5.35;;;15.00;75.40;;;;;;4633926;30;20068;-78
2021/07/20 04:42:00;;;;;;;8.65;5.43;;;15.00;75.20;;;;;;4633751;30;20034;-78
2021/07/20 04:44:26;;;;;;;9.38;5.25;;;15.00;75.20;;;;;;4634079;30;20039;-78
2021/07/20 04:46:52;;;;;;;9.20;5.80;;;15.10;75.10;;;;;;4633688;30;20090;-78
2021/07/20 04:49:19;;;;;;;9.88;5.20;;;15.10;74.90;;;;;;4633582;30;20038;-78
2021/07/20 04:51:45;;;;;;;8.07;5.07;;;15.10;74.70;;;;;;4633686;30;20035;-78
2021/07/20 04:54:13;;;;;;;9.05;5.28;;;15.10;74.60;;;;;;4633698;30;20045;-78
2021/07/20 04:56:39;;;;;;;9.32;5.78;;;15.10;74.60;;;;;;4633583;30;20034;-79
2021/07/20 04:59:04;;;;;;;9.80;5.88;;;15.20;74.50;;;;;;4648817;30;20047;-78
2021/07/20 05:01:33;;;;;;;7.70;4.93;;;15.20;74.40;;;;;;4633481;30;20117;-78
2021/07/20 05:04:02;;;;;;;9.20;5.82;;;15.20;74.20;;;;;;4633579;30;20027;-77
2021/07/20 05:06:29;;;;;;;9.38;6.13;;;15.20;74.10;;;;;;4648664;30;20141;-77
2021/07/20 05:08:56;;;;;;;7.82;5.35;;;15.20;73.90;;;;;;4633342;30;20043;-77
2021/07/20 05:11:22;;;;;;;9.57;5.30;;;15.20;73.90;;;;;;4633231;30;20035;-79
2021/07/20 05:13:49;;;;;;;9.85;5.50;;;15.30;73.90;;;;;;4633433;30;20041;-77
2021/07/20 05:16:16;;;;;;;7.25;4.97;;;15.30;73.70;;;;;;4633732;30;20378;-78
2021/07/20 05:18:44;;;;;;;8.80;5.03;;;15.30;73.70;;;;;;4633419;30;20183;-78
2021/07/20 05:21:11;;;;;;;8.90;5.47;;;15.40;73.60;;;;;;4648689;30;20043;-78
2021/07/20 05:23:39;;;;;;;8.02;5.50;;;15.40;74.10;;;;;;4633340;30;20109;-78
2021/07/20 05:26:07;;;;;;;9.65;5.47;;;15.40;73.40;;;;;;4633383;30;20039;-77
2021/07/20 05:28:33;;;;;;;7.95;5.43;;;15.50;73.30;;;;;;4633363;30;20045;-78
2021/07/20 05:31:01;;;;;;;8.13;5.50;;;15.50;73.20;;;;;;4648607;30;20039;-78
2021/07/20 05:33:27;;;;;;;7.28;5.38;;;15.50;73.10;;;;;;4648140;30;20078;-79
2021/07/20 05:35:58;;;;;;;9.10;5.07;;;15.60;73.10;;;;;;4633582;30;20524;-77
2021/07/20 05:38:28;;;;;;;7.68;5.20;;;15.60;73.10;;;;;;4633209;30;20043;-77
2021/07/20 05:40:56;;;;;;;8.65;5.07;;;15.60;72.90;;;;;;4633246;30;20043;-77
2021/07/20 05:43:24;;;;;;;9.52;5.20;;;15.60;72.80;;;;;;4630953;30;20050;-78
2021/07/20 05:45:52;;;;;;;8.35;5.55;;;15.70;72.70;;;;;;4633245;30;20097;-78
2021/07/20 05:48:20;;;;;;;8.65;5.35;;;15.70;72.70;;;;;;4633058;30;20031;-78
2021/07/20 05:50:56;;;;;;;6.72;4.72;;;15.70;72.60;;;;;;4633123;30;20043;-78
2021/07/20 05:53:28;;;;;;;7.18;5.10;;;15.80;72.60;;;;;;4648307;30;20410;-78
2021/07/20 05:55:56;;;;;;;6.95;4.80;;;15.80;72.50;;;;;;4648484;30;20034;-78
2021/07/20 05:58:23;;;;;;;7.20;5.03;;;15.80;72.50;;;;;;4632960;30;20137;-74
2021/07/20 06:00:52;;;;;;;9.10;5.38;;;15.80;72.30;;;;;;4632937;30;20043;-74
2021/07/20 06:03:20;;;;;;;7.15;4.80;;;15.90;72.30;;;;;;4648210;30;20039;-73
2021/07/20 06:05:49;;;;;;;6.88;4.57;;;15.90;72.20;;;;;;4632962;30;20058;-73
2021/07/20 06:08:16;;;;;;;9.55;4.82;;;16.00;72.10;;;;;;4632979;30;20043;-74
2021/07/20 06:10:45;;;;;;;6.05;4.53;;;16.00;72.00;;;;;;4633363;30;20039;-73
2021/07/20 06:13:11;;;;;;;6.40;4.45;;;16.10;72.00;;;;;;4636160;30;20528;-73
2021/07/20 06:15:44;;;;;;;9.93;4.88;;;16.10;71.80;;;;;;4636067;30;20134;-73
2021/07/20 06:18:10;;;;;;;6.03;4.60;;;16.10;71.60;;;;;;4651355;30;20046;-74
2021/07/20 06:20:39;;;;;;;7.55;4.80;;;16.20;71.60;;;;;;4635888;30;20053;-74
2021/07/20 06:23:06;;;;;;;7.93;4.45;;;16.20;71.40;;;;;;4636042;30;20502;-73
2021/07/20 06:25:33;;;;;;;6.70;4.82;;;16.20;71.20;;;;;;4635874;30;20035;-73
2021/07/20 06:28:01;;;;;;;6.25;4.47;;;16.30;71.80;;;;;;4636011;30;20043;-73
2021/07/20 06:30:28;;;;;;;7.40;4.50;;;16.30;71.00;;;;;;4635928;30;20094;-73
2021/07/20 06:32:53;;;;;;;6.90;4.38;;;16.40;71.00;;;;;;4651373;30;20493;-74
2021/07/20 06:35:20;;;;;;;7.20;4.85;;;16.40;70.90;;;;;;4635813;30;20031;-74
2021/07/20 06:37:46;;;;;;;5.88;3.83;;;16.40;70.90;;;;;;4635682;30;20065;-74
2021/07/20 06:40:17;;;;;;;7.25;4.63;;;16.50;70.80;;;;;;4635680;30;20039;-73
2021/07/20 06:42:44;;;;;;;8.20;5.07;;;16.60;70.70;;;;;;4636068;30;20130;-74
2021/07/20 06:45:14;;;;;;;6.63;4.88;;;16.70;70.70;;;;;;4635997;30;20126;-74
2021/07/20 06:47:43;;;;;;;8.60;4.93;;;16.70;70.50;;;;;;4635623;30;20042;-74
2021/07/20 06:50:10;;;;;;;7.88;5.15;;;16.80;70.40;;;;;;4650906;30;20543;-77
2021/07/20 06:52:36;;;;;;;9.00;5.15;;;16.80;70.20;;;;;;4635355;30;20069;-73
2021/07/20 06:55:03;;;;;;;6.65;4.93;;;16.80;70.10;;;;;;4635771;30;20133;-73
2021/07/20 06:57:31;;;;;;;7.38;4.90;;;16.90;70.10;;;;;;4635713;30;20551;-75
2021/07/20 06:59:59;;;;;;;6.60;4.60;;;16.90;70.00;;;;;;4635555;30;20035;-74
2021/07/20 07:02:26;;;;;;;6.50;4.45;;;17.00;70.00;;;;;;4635253;30;20066;-73
2021/07/20 07:04:57;;;;;;;8.32;4.38;;;17.10;69.80;;;;;;4635336;30;20031;-73
2021/07/20 07:07:25;;;;;;;6.57;4.30;;;17.20;69.60;;;;;;4650871;30;20035;-73
2021/07/20 07:09:51;;;;;;;6.85;4.47;;;17.30;69.50;;;;;;4635291;30;20035;-73
2021/07/20 07:12:18;;;;;;;7.25;4.68;;;17.40;69.30;;;;;;4635532;30;20109;-73
2021/07/20 07:14:44;;;;;;;7.40;4.65;;;17.40;69.00;;;;;;4635310;30;20405;-74
2021/07/20 07:17:11;;;;;;;7.50;4.60;;;17.40;68.80;;;;;;4635246;30;20049;-73
2021/07/20 07:19:39;;;;;;;6.63;4.20;;;17.50;68.70;;;;;;4635282;30;20062;-74
2021/07/20 07:22:06;;;;;;;7.05;4.80;;;17.60;68.50;;;;;;4634622;30;20582;-73
2021/07/20 07:24:36;;;;;;;6.38;4.40;;;17.60;68.20;;;;;;4635155;30;20045;-74
2021/07/20 07:27:02;;;;;;;6.60;4.60;;;17.70;67.80;;;;;;4635116;30;20039;-74
2021/07/20 07:29:28;;;;;;;9.65;5.22;;;17.70;67.60;;;;;;4635215;30;20046;-75
2021/07/20 07:31:54;;;;;;;6.20;4.70;;;17.80;67.00;;;;;;4650490;30;20070;-74
2021/07/20 07:34:20;;;;;;;8.20;5.07;;;17.80;66.30;;;;;;4634893;30;20051;-73
2021/07/20 07:36:48;;;;;;;8.05;4.90;;;17.80;66.40;;;;;;4635230;30;20046;-73
2021/07/20 07:39:16;;;;;;;7.00;5.20;;;17.90;66.20;;;;;;4650356;30;20031;-74
2021/07/20 07:41:44;;;;;;;7.70;4.78;;;17.90;65.50;;;;;;4634962;30;20047;-73
2021/07/20 07:44:12;;;;;;;6.18;4.70;;;17.90;65.20;;;;;;4634797;30;20031;-74
2021/07/20 07:46:40;;;;;;;8.07;5.38;;;18.00;64.90;;;;;;4650067;30;20031;-73
2021/07/20 07:49:08;;;;;;;7.85;5.10;;;18.00;64.60;;;;;;4634786;30;20102;-72
2021/07/20 07:51:34;;;;;;;7.20;5.07;;;18.10;64.70;;;;;;4649995;30;20046;-75
2021/07/20 07:54:01;;;;;;;7.63;4.97;;;18.10;64.40;;;;;;4634832;30;20457;-73
2021/07/20 07:56:28;;;;;;;6.13;4.80;;;18.10;64.40;;;;;;4649847;30;20042;-73
2021/07/20 07:58:59;;;;;;;6.18;4.45;;;18.10;64.30;;;;;;4650251;30;20521;-73
2021/07/20 08:01:27;;;;;;;6.88;4.75;;;18.20;64.40;;;;;;4634521;30;20039;-74
2021/07/20 08:03:54;;;;;;;6.97;4.38;;;18.20;64.40;;;;;;4634498;30;20058;-74
2021/07/20 08:06:21;;;;;;;7.95;4.50;;;18.30;64.20;;;;;;4649691;30;20039;-74
2021/07/20 08:12:26;;;;;;;7.18;4.90;;;18.40;63.80;;;;;;4650102;30;20046;-73
2021/07/20 08:14:51;;;;;;;6.75;4.57;;;18.40;63.80;;;;;;4649709;30;20047;-74
2021/07/20 08:17:18;;;;;;;6.63;4.80;;;18.50;63.80;;;;;;4649580;30;20035;-76
2021/07/20 08:19:44;;;;;;;7.78;5.20;;;18.60;63.60;;;;;;4634170;30;20648;-75
2021/07/20 08:22:14;;;;;;;8.00;4.93;;;18.60;63.40;;;;;;4634047;30;20039;-74
2021/07/20 08:24:46;;;;;;;5.82;4.40;;;18.70;63.30;;;;;;4634161;30;20027;-73
2021/07/20 08:27:13;;;;;;;6.50;4.65;;;18.70;63.20;;;;;;4634518;30;20030;-73
2021/07/20 08:29:44;;;;;;;6.95;4.55;;;18.80;62.90;;;;;;4634099;30;20493;-73
2021/07/20 08:32:12;;;;;;;5.97;4.22;;;18.90;62.70;;;;;;4634088;30;20030;-73
2021/07/20 08:34:45;;;;;;;6.70;4.63;;;18.90;62.60;;;;;;4633633;30;20150;-74
2021/07/20 08:37:13;;;;;;;5.97;4.53;;;19.00;62.40;;;;;;4634154;30;20062;-74
2021/07/20 08:39:40;;;;;;;5.95;4.55;;;19.10;62.10;;;;;;4633903;30;20419;-74
2021/07/20 08:42:23;;;;;;;7.05;5.03;;;19.20;62.00;;;;;;4633796;30;20031;-74
2021/07/20 08:45:33;;;;;;;7.27;4.93;;;19.30;61.90;;;;;;4633933;30;20076;-74
2021/07/20 08:48:15;;;;;;;7.38;4.95;;;19.40;61.80;;;;;;4566849;31;20101;-73
2021/07/20 08:51:04;;;;;;;6.07;4.47;;;19.60;61.50;;;;;;4627177;30;20047;-74
2021/07/20 08:53:59;;;;;;;5.95;4.65;;;19.60;61.00;;;;;;4633665;30;20067;-73
2021/07/20 08:56:27;;;;;;;5.57;4.32;;;19.70;61.00;;;;;;4633179;30;20395;-75
2021/07/20 08:59:03;;;;;;;6.63;4.75;;;19.70;61.00;;;;;;4633809;30;20053;-75
2021/07/20 09:01:47;;;;;;;8.38;4.90;;;19.80;60.90;;;;;;4648849;30;20097;-74
2021/07/20 09:04:21;;;;;;;7.97;4.97;;;20.00;60.80;;;;;;4648969;30;20042;-76
2021/07/20 09:07:14;;;;;;;6.18;4.90;;;20.00;59.90;;;;;;4633658;30;20465;-75
2021/07/20 09:09:46;;;;;;;8.10;4.93;;;20.00;59.60;;;;;;4633712;30;20038;-74
2021/07/20 09:12:28;;;;;;;6.68;4.82;;;20.00;59.80;;;;;;4633568;30;20035;-73
2021/07/20 09:14:58;;;;;;;7.10;4.70;;;20.00;59.70;;;;;;4631028;30;20092;-74
2021/07/20 09:17:43;;;;;;;6.10;4.57;;;19.90;59.70;;;;;;4648793;30;20049;-74
2021/07/20 09:20:19;;;;;;;6.82;4.85;;;19.80;59.60;;;;;;4633502;30;20532;-72
2021/07/20 09:23:09;;;;;;;5.57;4.32;;;19.80;59.70;;;;;;4633358;30;20058;-75
2021/07/20 09:25:43;;;;;;;6.75;4.63;;;19.80;59.60;;;;;;4633394;30;20038;-73
2021/07/20 09:28:41;;;;;;;7.70;5.57;;;19.90;59.50;;;;;;4648808;30;20024;-74
2021/07/20 09:31:17;;;;;;;6.60;4.82;;;20.00;59.30;;;;;;4633376;30;20063;-74
2021/07/20 09:34:19;;;;;;;7.30;5.05;;;20.00;59.30;;;;;;4633153;30;20090;-74
2021/07/20 09:37:00;;;;;;;5.72;4.40;;;20.10;59.10;;;;;;4633537;30;20079;-74
2021/07/20 09:39:47;;;;;;;7.47;4.85;;;20.20;59.20;;;;;;4633022;30;20052;-74
2021/07/20 09:42:37;;;;;;;6.25;4.60;;;20.40;59.00;;;;;;4633216;30;20042;-74
2021/07/20 09:45:27;;;;;;;6.43;5.00;;;20.50;58.90;;;;;;4633102;30;20090;-73
2021/07/20 09:48:24;;;;;;;6.40;4.70;;;20.60;58.50;;;;;;4636625;30;20066;-74
2021/07/20 09:51:19;;;;;;;8.65;5.78;;;20.60;58.50;;;;;;4636610;30;20556;-74
2021/07/20 09:54:10;;;;;;;6.38;4.43;;;20.60;58.50;;;;;;4634404;30;20082;-74
2021/07/20 09:56:52;;;;;;;7.13;4.53;;;20.70;58.50;;;;;;4636560;30;20047;-74
2021/07/20 10:00:06;;;;;;;6.47;4.75;;;20.90;58.40;;;;;;4636447;30;20078;-74
2021/07/20 10:02:48;;;;;;;8.00;5.18;;;21.00;57.80;;;;;;4622238;30;20413;-74
2021/07/20 10:05:32;;;;;;;7.22;4.43;;;21.00;57.50;;;;;;4636505;30;20031;-75
2021/07/20 10:08:20;;;;;;;6.20;4.68;;;21.00;57.70;;;;;;4636564;30;20035;-73
2021/07/20 10:11:18;;;;;;;5.10;4.00;;;21.10;57.40;;;;;;4651790;30;20105;-74
2021/07/20 10:14:15;;;;;;;6.65;4.82;;;21.10;57.40;;;;;;4636082;30;20386;-74
2021/07/20 10:17:03;;;;;;;6.28;4.53;;;21.10;57.20;;;;;;4651403;30;20049;-75
2021/07/20 10:19:49;;;;;;;8.25;4.90;;;21.20;57.20;;;;;;4651332;30;20035;-74
2021/07/20 10:22:21;;;;;;;7.30;4.47;;;21.20;57.10;;;;;;4636024;30;20035;-74
2021/07/20 10:24:56;;;;;;;5.33;3.67;;;21.30;57.10;;;;;;4635910;30;20105;-74
2021/07/20 10:27:35;;;;;;;6.30;4.55;;;21.30;57.00;;;;;;4651287;30;20058;-74
2021/07/20 10:30:06;;;;;;;7.57;5.22;;;21.30;56.80;;;;;;4634000;30;20074;-74
2021/07/20 10:32:57;;;;;;;6.75;4.55;;;21.30;56.70;;;;;;4651212;30;20118;-73
2021/07/20 10:35:33;;;;;;;6.40;4.60;;;21.30;56.80;;;;;;4635832;30;20598;-73
2021/07/20 10:38:02;;;;;;;5.50;4.15;;;21.20;56.60;;;;;;4635822;30;20509;-74
2021/07/20 10:40:30;;;;;;;5.35;4.18;;;21.30;56.60;;;;;;4635976;30;20062;-74
2021/07/20 10:43:00;;;;;;;6.63;4.65;;;21.30;56.40;;;;;;4636092;30;20066;-74
2021/07/20 10:45:32;;;;;;;6.32;4.38;;;21.40;56.50;;;;;;4635803;30;20031;-74
2021/07/20 10:48:47;;;;;;;7.07;5.00;;;21.50;56.40;;;;;;4635724;30;20143;-73
2021/07/20 10:51:19;;;;;;;6.50;4.53;;;21.70;56.20;;;;;;4635600;30;20109;-73
2021/07/20 10:54:03;;;;;;;5.60;4.40;;;21.90;55.90;;;;;;4650840;30;20612;-74
2021/07/20 10:56:50;;;;;;;7.50;5.03;;;21.90;55.50;;;;;;4635585;30;20035;-74
2021/07/20 10:59:18;;;;;;;7.35;5.15;;;22.00;55.40;;;;;;4650787;30;20114;-74
2021/07/20 11:02:12;;;;;;;5.60;4.57;;;22.00;55.30;;;;;;4650698;30;20039;-73
2021/07/20 11:04:56;;;;;;;;;;;22.20;55.30;;;;;;4651168;30;20545;-75
2021/07/20 11:07:26;;;;;;;6.60;4.60;;;22.20;55.40;;;;;;4635469;30;19919;-75
2021/07/20 11:09:53;;;;;;;6.05;4.53;;;22.20;55.30;;;;;;4635464;30;20031;-75
2021/07/20 11:12:24;;;;;;;6.45;4.68;;;22.40;55.00;;;;;;4635504;30;20125;-75
2021/07/20 11:14:52;;;;;;;6.70;5.00;;;22.50;54.80;;;;;;4650767;30;20043;-75
2021/07/20 11:17:20;;;;;;;6.22;4.43;;;22.50;54.30;;;;;;4635560;30;20164;-74
2021/07/20 11:19:49;;;;;;;5.45;4.45;;;22.50;54.30;;;;;;4633086;30;20085;-74
2021/07/20 11:22:16;;;;;;;6.75;4.63;;;22.50;54.40;;;;;;4650658;30;20051;-73
2021/07/20 11:24:43;;;;;;;6.53;4.70;;;22.40;54.40;;;;;;4635266;30;20031;-74
2021/07/20 11:27:11;;;;;;;6.22;4.50;;;22.50;54.40;;;;;;4635232;30;20027;-75
2021/07/20 11:29:37;;;;;;;5.20;4.35;;;22.60;54.30;;;;;;4650492;30;20042;-74
2021/07/20 11:32:06;;;;;;;6.78;5.15;;;22.60;54.30;;;;;;4635041;30;20035;-76
2021/07/20 11:34:35;;;;;;;7.35;4.70;;;22.60;53.90;;;;;;4634948;30;20523;-74
2021/07/20 11:37:20;;;;;;;6.20;5.32;;;22.60;54.50;;;;;;4650331;30;20058;-74
2021/07/20 11:39:52;;;;;;;6.97;5.30;;;22.60;53.90;;;;;;4635095;30;20039;-74
2021/07/20 11:45:32;;;;;;;6.72;4.85;;;22.60;54.60;;;;;;4614537;31;20043;-74
2021/07/20 11:48:12;;;;;;;6.47;5.20;;;22.70;53.90;;;;;;4614612;31;20126;-74
2021/07/20 11:51:04;;;;;;;6.70;5.50;;;22.80;53.20;;;;;;4614483;31;20433;-75
2021/07/20 11:53:50;;;;;;;7.93;6.00;;;22.80;53.10;;;;;;4600576;31;20088;-75
2021/07/20 11:56:54;;;;;;;7.40;5.80;;;22.80;52.80;;;;;;4600635;31;20043;-75
2021/07/20 11:59:57;;;;;;;6.53;4.70;;;22.70;53.10;;;;;;4600417;31;20048;-74
2021/07/20 12:02:46;;;;;;;7.15;5.30;;;22.90;53.40;;;;;;4600250;31;20103;-73
2021/07/20 12:08:58;;;;;;;6.65;5.05;;;23.00;53.10;;;;;;4614163;31;20063;-74
2021/07/20 12:11:30;;;;;;;7.60;5.60;;;22.80;53.30;;;;;;4614259;31;20135;-76
2021/07/20 12:14:04;;;;;;;9.70;6.00;;;22.90;53.20;;;;;;4612169;31;20114;-75
2021/07/20 12:16:52;;;;;;;7.43;6.00;;;22.90;52.80;;;;;;4622736;30;20043;-76
2021/07/20 12:19:30;;;;;;;8.77;6.15;;;22.70;52.60;;;;;;4634418;30;20113;-75
2021/07/20 12:22:00;;;;;;;8.07;5.65;;;22.60;53.00;;;;;;4634307;30;20046;-74
2021/07/20 12:24:27;;;;;;;7.22;5.28;;;22.60;53.20;;;;;;4631957;30;20405;-76
2021/07/20 12:26:53;;;;;;;7.00;5.53;;;22.70;53.30;;;;;;4634350;30;20031;-74
2021/07/20 12:29:19;;;;;;;6.95;5.28;;;22.90;53.30;;;;;;4634332;30;20549;-74
2021/07/20 12:31:47;;;;;;;7.95;5.20;;;23.00;53.00;;;;;;4646794;30;20116;-76
2021/07/20 12:37:35;;;;;;;6.93;5.20;;;23.10;52.90;;;;;;4649700;30;20090;-74
2021/07/20 12:40:02;;;;;;;8.60;5.40;;;23.10;53.00;;;;;;4649390;30;20038;-76
2021/07/20 12:42:41;;;;;;;6.18;5.15;;;23.00;53.10;;;;;;4633911;30;20497;-75
2021/07/20 12:45:56;;;;;;;5.82;4.80;;;23.10;53.10;;;;;;4634421;30;20066;-75
2021/07/20 12:48:30;;;;;;;5.63;4.72;;;23.20;52.90;;;;;;4633816;30;20039;-75
2021/07/20 12:51:07;;;;;;;8.60;5.40;;;23.40;52.80;;;;;;4631584;30;20448;-74
2021/07/20 12:53:37;;;;;;;6.95;4.57;;;23.50;52.50;;;;;;4633940;30;20098;-74
2021/07/20 12:56:03;;;;;;;8.10;5.80;;;23.50;52.40;;;;;;4633857;30;20456;-75
2021/07/20 12:58:30;;;;;;;6.82;5.38;;;23.60;52.40;;;;;;4633846;30;20043;-74
2021/07/20 13:00:59;;;;;;;6.32;4.93;;;23.70;52.30;;;;;;4633671;30;20653;-75
2021/07/20 13:03:26;;;;;;;7.15;4.95;;;23.90;52.10;;;;;;4633770;30;20049;-75
2021/07/20 13:05:53;;;;;;;6.50;4.80;;;24.00;51.90;;;;;;4633997;30;20482;-74
2021/07/20 13:08:19;;;;;;;6.13;4.50;;;24.20;51.60;;;;;;4631740;30;20145;-75
2021/07/20 13:10:51;;;;;;;6.00;4.57;;;24.30;51.50;;;;;;4633617;30;20082;-74
2021/07/20 13:13:16;;;;;;;6.13;5.07;;;24.30;51.40;;;;;;4633739;30;20038;-75
2021/07/20 13:15:51;;;;;;;7.88;5.03;;;24.30;51.30;;;;;;4633717;30;20039;-74
2021/07/20 13:18:22;;;;;;;7.88;5.10;;;24.10;51.20;;;;;;4633486;30;20038;-74
2021/07/20 13:20:52;;;;;;;6.00;4.65;;;24.10;51.40;;;;;;4632717;30;20477;-75
2021/07/20 13:23:18;;;;;;;5.80;4.60;;;24.10;51.60;;;;;;4648737;30;20031;-75
2021/07/20 13:25:49;;;;;;;6.65;4.53;;;24.30;51.60;;;;;;4630921;30;20410;-75